createdAt,value
2023-07-31T00:00:45.624Z,1.35
2023-07-31T00:04:57.305Z,1.35
2023-07-31T00:09:08.999Z,1.17
2023-07-31T00:13:20.884Z,1.30
2023-07-31T00:17:32.579Z,1.60
2023-07-31T00:21:45.457Z,1.38
2023-07-31T00:25:57.226Z,1.10
2023-07-31T00:30:09.085Z,1.33
2023-07-31T00:34:20.832Z,1.30
2023-07-31T00:38:32.554Z,1.48
2023-07-31T00:42:44.978Z,1.50
2023-07-31T00:46:57.345Z,2.22
2023-07-31T00:51:09.431Z,2.83
2023-07-31T00:55:22.987Z,3.95
2023-07-31T00:59:34.980Z,4.60
2023-07-31T01:03:48.761Z,5.82
2023-07-31T01:08:03.394Z,6.28
2023-07-31T01:12:17.697Z,6.75
2023-07-31T01:16:29.764Z,7.68
2023-07-31T01:20:43.617Z,7.93
2023-07-31T01:25:13.572Z,7.90
2023-07-31T01:29:50.342Z,7.30
2023-07-31T01:34:03.067Z,7.10
2023-07-31T01:38:15.560Z,6.72
2023-07-31T01:42:27.280Z,6.65
2023-07-31T01:46:39.384Z,7.03
2023-07-31T01:50:51.440Z,6.53
2023-07-31T01:55:03.195Z,6.63
2023-07-31T01:59:15.260Z,6.70
2023-07-31T02:03:27.138Z,6.88
2023-07-31T02:07:38.865Z,6.20
2023-07-31T02:11:50.692Z,6.18
2023-07-31T02:16:02.494Z,6.63
2023-07-31T02:20:14.302Z,5.93
2023-07-31T02:24:26.275Z,5.65
2023-07-31T02:28:38.506Z,6.45
2023-07-31T02:32:50.250Z,5.53
2023-07-31T02:37:01.942Z,6.00
2023-07-31T02:41:13.641Z,5.32
2023-07-31T02:45:25.376Z,5.93
2023-07-31T02:49:37.178Z,5.72
2023-07-31T02:53:49.206Z,5.55
2023-07-31T02:58:00.924Z,5.45
2023-07-31T03:02:14.328Z,5.63
2023-07-31T03:06:27.369Z,5.78
2023-07-31T03:10:39.098Z,5.88
2023-07-31T03:14:50.878Z,6.40
2023-07-31T03:19:02.630Z,5.60
2023-07-31T03:23:14.422Z,6.00
2023-07-31T03:27:26.094Z,6.10
2023-07-31T03:31:37.802Z,6.30
2023-07-31T03:35:49.547Z,5.65
2023-07-31T03:40:01.341Z,6.28
2023-07-31T03:44:12.960Z,5.53
2023-07-31T03:48:24.683Z,5.80
2023-07-31T03:52:36.442Z,5.70
2023-07-31T03:56:48.105Z,5.07
2023-07-31T04:01:00.049Z,5.78
2023-07-31T04:05:12.106Z,5.88
2023-07-31T04:09:23.860Z,5.28
2023-07-31T04:13:35.515Z,5.65
2023-07-31T04:17:47.188Z,5.28
2023-07-31T04:21:59.038Z,5.25
2023-07-31T04:26:10.661Z,5.53
2023-07-31T04:30:22.313Z,5.05
2023-07-31T04:34:33.972Z,4.65
2023-07-31T04:38:45.715Z,5.65
2023-07-31T04:42:57.515Z,5.13
2023-07-31T04:47:09.225Z,5.00
2023-07-31T04:51:22.273Z,5.97
2023-07-31T04:55:33.993Z,5.50
2023-07-31T04:59:46.135Z,5.00
2023-07-31T05:03:58.545Z,5.82
2023-07-31T05:08:10.357Z,4.88
2023-07-31T05:12:22.095Z,6.05
2023-07-31T05:16:33.897Z,5.00
2023-07-31T05:20:45.667Z,5.47
2023-07-31T05:24:57.435Z,4.50
2023-07-31T05:29:09.132Z,5.47
2023-07-31T05:33:20.898Z,4.07
2023-07-31T05:37:32.651Z,4.72
2023-07-31T05:41:44.337Z,4.65
2023-07-31T05:45:56.054Z,4.22
2023-07-31T05:50:08.037Z,4.85
2023-07-31T05:54:19.798Z,4.97
2023-07-31T05:58:31.550Z,4.53
2023-07-31T06:02:43.269Z,4.90
2023-07-31T06:06:55.169Z,4.60
2023-07-31T06:11:07.276Z,4.60
2023-07-31T06:15:21.885Z,4.35
2023-07-31T06:19:33.615Z,3.90
2023-07-31T06:23:45.323Z,4.50
2023-07-31T06:27:57.046Z,4.32
2023-07-31T06:32:09.093Z,3.85
2023-07-31T06:36:20.847Z,3.53
2023-07-31T06:40:32.585Z,3.92
2023-07-31T06:44:44.304Z,3.67
2023-07-31T06:48:56.250Z,3.78
2023-07-31T06:53:07.980Z,3.60
2023-07-31T06:57:19.700Z,3.30
2023-07-31T07:01:31.466Z,3.03
2023-07-31T07:05:43.240Z,2.70
2023-07-31T07:09:55.011Z,2.50
2023-07-31T07:14:06.750Z,2.22
2023-07-31T07:18:18.889Z,2.05
2023-07-31T07:22:31.549Z,2.00
2023-07-31T07:26:43.272Z,1.92
2023-07-31T07:30:56.574Z,1.67
2023-07-31T07:35:08.627Z,1.90
2023-07-31T07:39:20.278Z,1.80
2023-07-31T07:43:31.965Z,1.73
2023-07-31T07:47:43.808Z,1.40
2023-07-31T07:51:55.509Z,1.60
2023-07-31T07:56:07.263Z,1.40
2023-07-31T08:00:19.448Z,1.67
2023-07-31T08:04:32.218Z,1.30
2023-07-31T08:08:43.899Z,1.45
2023-07-31T08:12:55.532Z,1.40
2023-07-31T08:17:07.506Z,1.70
2023-07-31T08:21:19.398Z,1.50
2023-07-31T08:25:31.190Z,1.60
2023-07-31T08:29:42.927Z,1.80
2023-07-31T08:33:54.705Z,1.60
2023-07-31T08:38:06.501Z,2.00
2023-07-31T08:42:18.256Z,1.77
2023-07-31T08:46:30.972Z,1.75
2023-07-31T08:50:43.449Z,2.13
2023-07-31T08:54:55.198Z,2.28
2023-07-31T08:59:07.557Z,2.20
2023-07-31T09:03:19.977Z,2.53
2023-07-31T09:07:34.234Z,2.50
2023-07-31T09:11:46.113Z,2.30
2023-07-31T09:15:57.795Z,2.20
2023-07-31T09:20:21.622Z,2.67
2023-07-31T09:24:35.965Z,2.45
2023-07-31T09:28:47.712Z,3.10
2023-07-31T09:33:07.226Z,2.97
2023-07-31T09:37:20.109Z,3.72
2023-07-31T09:41:32.462Z,3.95
2023-07-31T09:45:45.635Z,4.00
2023-07-31T09:49:57.458Z,4.30
2023-07-31T09:54:13.540Z,4.30
2023-07-31T09:58:29.196Z,4.28
2023-07-31T10:02:41.233Z,4.80
2023-07-31T10:06:54.875Z,4.38
2023-07-31T10:11:10.792Z,4.82
2023-07-31T10:15:23.115Z,4.65
2023-07-31T10:19:36.162Z,5.05
2023-07-31T10:23:50.282Z,5.40
2023-07-31T10:28:02.325Z,5.28
2023-07-31T10:32:15.530Z,5.50
2023-07-31T10:36:28.164Z,5.25
2023-07-31T10:40:40.428Z,4.80
2023-07-31T10:44:57.648Z,5.18
2023-07-31T10:49:09.399Z,5.10
2023-07-31T10:53:26.734Z,5.15
2023-07-31T10:57:38.443Z,5.90
2023-07-31T11:02:03.741Z,5.03
2023-07-31T11:06:18.565Z,5.03
2023-07-31T11:10:31.006Z,5.00
2023-07-31T11:14:42.656Z,4.93
2023-07-31T11:18:57.044Z,4.95
2023-07-31T11:23:11.466Z,5.25
2023-07-31T11:27:23.179Z,4.40
2023-07-31T11:31:40.433Z,4.63
2023-07-31T11:35:52.133Z,4.50
2023-07-31T11:40:04.694Z,4.75
2023-07-31T11:48:57.784Z,4.63
2023-07-31T11:53:10.581Z,4.30
2023-07-31T12:06:59.124Z,3.80
2023-07-31T12:11:21.323Z,4.25
2023-07-31T12:21:05.205Z,3.90
2023-07-31T12:25:27.450Z,3.75
2023-07-31T12:30:10.320Z,3.75
2023-07-31T12:34:25.489Z,3.90
2023-07-31T12:38:47.926Z,4.10
2023-07-31T12:43:25.840Z,4.03
2023-07-31T12:47:43.345Z,4.50
2023-07-31T12:56:38.986Z,4.28
2023-07-31T13:05:32.844Z,4.38
2023-07-31T13:10:03.275Z,4.70
2023-07-31T13:14:27.883Z,4.20
2023-07-31T13:18:41.841Z,4.60
2023-07-31T13:27:28.906Z,4.40
2023-07-31T13:31:40.668Z,4.32
2023-07-31T13:35:52.514Z,3.90
2023-07-31T13:40:06.140Z,3.78
2023-07-31T13:44:18.105Z,3.90
2023-07-31T13:48:29.756Z,3.78
2023-07-31T13:52:41.513Z,3.78
2023-07-31T13:56:54.142Z,4.35
2023-07-31T14:01:05.997Z,4.68
2023-07-31T14:05:17.778Z,4.10
2023-07-31T14:09:29.668Z,4.63
2023-07-31T14:13:41.607Z,4.10
2023-07-31T14:17:53.512Z,4.40
2023-07-31T14:22:11.546Z,4.80
2023-07-31T14:26:23.862Z,4.85
2023-07-31T14:30:35.700Z,5.22
2023-07-31T14:34:47.438Z,4.25
2023-07-31T14:38:59.181Z,4.63
2023-07-31T14:43:10.872Z,3.97
2023-07-31T14:47:22.627Z,4.47
2023-07-31T14:51:34.550Z,3.85
2023-07-31T14:55:46.266Z,4.30
2023-07-31T14:59:57.943Z,4.35
2023-07-31T15:04:09.677Z,4.82
2023-07-31T15:08:21.532Z,5.00
2023-07-31T15:12:33.373Z,4.35
2023-07-31T15:16:49.070Z,4.70
2023-07-31T15:21:00.719Z,4.78
2023-07-31T15:25:12.513Z,3.97
2023-07-31T15:29:24.216Z,4.32
2023-07-31T15:33:37.677Z,4.07
2023-07-31T15:37:50.943Z,4.28
2023-07-31T15:42:02.715Z,4.18
2023-07-31T15:46:14.647Z,3.58
2023-07-31T15:50:26.397Z,4.15
2023-07-31T15:54:38.084Z,3.85
2023-07-31T15:58:51.556Z,3.10
2023-07-31T16:03:03.523Z,3.20
2023-07-31T16:07:15.369Z,3.10
2023-07-31T16:11:28.364Z,3.28
2023-07-31T16:15:40.082Z,2.90
2023-07-31T16:19:51.842Z,2.28
2023-07-31T16:24:03.680Z,1.92
2023-07-31T16:28:17.166Z,1.85
2023-07-31T16:32:29.209Z,1.88
2023-07-31T16:36:41.384Z,1.50
2023-07-31T16:40:53.369Z,1.40
2023-07-31T16:45:05.566Z,1.33
2023-07-31T16:49:17.219Z,1.60
2023-07-31T16:53:28.889Z,1.30
2023-07-31T16:57:40.626Z,1.20
2023-07-31T17:01:52.391Z,1.48
2023-07-31T17:06:04.090Z,1.17
2023-07-31T17:10:15.810Z,1.40
2023-07-31T17:14:27.531Z,1.13
2023-07-31T17:18:39.247Z,1.40
2023-07-31T17:22:50.938Z,1.40
2023-07-31T17:27:02.662Z,1.20
2023-07-31T17:31:14.438Z,1.40
2023-07-31T17:35:26.175Z,1.30
2023-07-31T17:39:37.938Z,1.10
2023-07-31T17:43:49.658Z,1.25
2023-07-31T17:48:01.635Z,1.10
2023-07-31T17:52:13.562Z,1.10
2023-07-31T17:56:25.349Z,1.17
2023-07-31T18:00:37.189Z,1.40
2023-07-31T18:04:48.992Z,1.23
2023-07-31T18:09:02.189Z,1.17
2023-07-31T18:13:15.250Z,1.27
2023-07-31T18:17:27.051Z,0.93
2023-07-31T18:21:39.267Z,1.05
2023-07-31T18:25:51.189Z,1.00
2023-07-31T18:30:03.344Z,1.08
2023-07-31T18:34:15.015Z,0.93
2023-07-31T18:38:26.696Z,1.10
2023-07-31T18:42:38.358Z,0.70
2023-07-31T18:46:50.073Z,1.13
2023-07-31T18:51:02.012Z,0.90
2023-07-31T18:55:13.729Z,1.00
2023-07-31T18:59:25.405Z,1.00
2023-07-31T19:03:38.380Z,1.00
2023-07-31T19:07:50.102Z,0.90
2023-07-31T19:12:02.156Z,1.13
2023-07-31T19:16:14.012Z,0.80
2023-07-31T19:20:25.879Z,0.93
2023-07-31T19:24:37.767Z,1.05
2023-07-31T19:28:50.862Z,1.20
2023-07-31T19:33:02.569Z,1.10
2023-07-31T19:37:19.160Z,1.25
2023-07-31T19:41:54.209Z,1.17
2023-07-31T19:51:56.960Z,1.42
2023-07-31T20:07:02.249Z,1.80
2023-07-31T20:11:44.471Z,1.77
2023-07-31T20:16:19.868Z,2.00
2023-07-31T20:20:57.067Z,1.73
2023-07-31T20:25:10.094Z,2.05
2023-07-31T20:29:21.879Z,2.05
2023-07-31T20:33:33.606Z,2.22
2023-07-31T20:37:45.884Z,2.05
2023-07-31T20:41:57.659Z,2.42
2023-07-31T20:46:09.400Z,2.20
2023-07-31T20:50:21.151Z,2.22
2023-07-31T20:54:32.854Z,2.10
2023-07-31T20:58:44.580Z,1.98
2023-07-31T21:02:56.574Z,2.13
2023-07-31T21:07:11.043Z,2.05
2023-07-31T21:11:22.713Z,2.20
2023-07-31T21:15:34.462Z,2.42
2023-07-31T21:19:46.789Z,2.85
2023-07-31T21:23:59.701Z,2.35
2023-07-31T21:28:14.287Z,2.65
2023-07-31T21:32:26.792Z,2.40
2023-07-31T21:36:38.618Z,2.75
2023-07-31T21:40:50.543Z,2.60
2023-07-31T21:45:02.265Z,2.60
2023-07-31T21:49:14.115Z,2.72
2023-07-31T21:53:25.906Z,2.80
2023-07-31T21:57:37.708Z,2.60
2023-07-31T22:01:49.425Z,2.83
2023-07-31T22:06:01.132Z,2.95
2023-07-31T22:10:12.786Z,3.20
2023-07-31T22:14:24.561Z,3.42
2023-07-31T22:18:36.205Z,3.10
2023-07-31T22:22:47.923Z,3.33
2023-07-31T22:26:59.569Z,3.55
2023-07-31T22:31:11.276Z,3.60
2023-07-31T22:35:23.024Z,3.10
2023-07-31T22:39:36.559Z,3.75
2023-07-31T22:43:48.310Z,3.70
2023-07-31T22:48:00.233Z,3.38
2023-07-31T22:52:12.047Z,4.03
2023-07-31T22:56:23.765Z,3.75
2023-07-31T23:00:35.601Z,3.65
2023-07-31T23:04:47.472Z,3.58
2023-07-31T23:08:59.208Z,4.28
2023-07-31T23:13:10.889Z,3.70
2023-07-31T23:17:22.765Z,4.20
2023-07-31T23:21:34.477Z,3.90
2023-07-31T23:25:49.752Z,4.00
2023-07-31T23:30:01.479Z,3.60
2023-07-31T23:34:13.208Z,4.43
2023-07-31T23:38:24.998Z,4.28
2023-07-31T23:42:36.670Z,4.47
2023-07-31T23:46:48.361Z,4.10
2023-07-31T23:51:00.669Z,4.57
2023-07-31T23:55:12.764Z,4.00
2023-07-31T23:59:24.523Z,3.92
